sensor_id;sensor_type;location;lat;lon;timestamp;P1;durP1;ratioP1;P2;durP2;ratioP2
27642;SDS011;15053;48.618;10.024;2023-06-10T00:02:01;7.45;;;6.72;;
27642;SDS011;15053;48.618;10.024;2023-06-10T00:04:27;8.23;;;7.43;;
27642;SDS011;15053;48.618;10.024;2023-06-10T00:06:54;8.88;;;7.07;;
27642;SDS011;15053;48.618;10.024;2023-06-10T00:09:21;9.15;;;7.55;;
27642;SDS011;15053;48.618;10.024;2023-06-10T00:11:49;7.70;;;6.90;;
27642;SDS011;15053;48.618;10.024;2023-06-10T00:14:15;9.18;;;6.35;;
27642;SDS011;15053;48.618;10.024;2023-06-10T00:16:42;8.90;;;7.55;;
27642;SDS011;15053;48.618;10.024;2023-06-10T00:19:11;8.30;;;7.22;;
27642;SDS011;15053;48.618;10.024;2023-06-10T00:21:40;7.47;;;6.53;;
27642;SDS011;15053;48.618;10.024;2023-06-10T00:24:07;7.65;;;6.70;;
27642;SDS011;15053;48.618;10.024;2023-06-10T00:26:39;9.63;;;7.47;;
27642;SDS011;15053;48.618;10.024;2023-06-10T00:29:06;7.22;;;6.50;;
27642;SDS011;15053;48.618;10.024;2023-06-10T00:31:34;8.02;;;7.07;;
27642;SDS011;15053;48.618;10.024;2023-06-10T00:34:02;9.13;;;7.20;;
27642;SDS011;15053;48.618;10.024;2023-06-10T00:36:30;7.97;;;6.88;;
27642;SDS011;15053;48.618;10.024;2023-06-10T00:38:56;8.73;;;7.15;;
27642;SDS011;15053;48.618;10.024;2023-06-10T00:41:23;11.25;;;6.72;;
27642;SDS011;15053;48.618;10.024;2023-06-10T00:43:50;8.05;;;7.22;;
27642;SDS011;15053;48.618;10.024;2023-06-10T00:46:16;8.52;;;7.40;;
27642;SDS011;15053;48.618;10.024;2023-06-10T00:48:44;8.70;;;6.78;;
27642;SDS011;15053;48.618;10.024;2023-06-10T00:51:11;8.98;;;7.30;;
27642;SDS011;15053;48.618;10.024;2023-06-10T00:53:39;8.77;;;6.60;;
27642;SDS011;15053;48.618;10.024;2023-06-10T00:56:06;8.23;;;6.68;;
27642;SDS011;15053;48.618;10.024;2023-06-10T00:58:34;7.85;;;6.75;;
27642;SDS011;15053;48.618;10.024;2023-06-10T01:01:02;9.35;;;6.50;;
27642;SDS011;15053;48.618;10.024;2023-06-10T01:03:30;8.05;;;6.93;;
27642;SDS011;15053;48.618;10.024;2023-06-10T01:06:00;6.97;;;6.28;;
27642;SDS011;15053;48.618;10.024;2023-06-10T01:08:56;7.40;;;6.60;;
27642;SDS011;15053;48.618;10.024;2023-06-10T01:11:28;7.07;;;6.38;;
27642;SDS011;15053;48.618;10.024;2023-06-10T01:14:02;7.88;;;6.88;;
27642;SDS011;15053;48.618;10.024;2023-06-10T01:16:31;6.60;;;5.90;;
27642;SDS011;15053;48.618;10.024;2023-06-10T01:18:58;8.05;;;6.47;;
27642;SDS011;15053;48.618;10.024;2023-06-10T01:21:26;8.10;;;6.55;;
27642;SDS011;15053;48.618;10.024;2023-06-10T01:23:53;7.45;;;6.40;;
27642;SDS011;15053;48.618;10.024;2023-06-10T01:26:23;7.80;;;6.30;;
27642;SDS011;15053;48.618;10.024;2023-06-10T01:28:57;8.00;;;6.47;;
27642;SDS011;15053;48.618;10.024;2023-06-10T01:31:38;7.18;;;6.38;;
27642;SDS011;15053;48.618;10.024;2023-06-10T01:34:14;9.65;;;6.72;;
27642;SDS011;15053;48.618;10.024;2023-06-10T01:36:44;8.65;;;6.85;;
27642;SDS011;15053;48.618;10.024;2023-06-10T01:39:17;8.15;;;6.28;;
27642;SDS011;15053;48.618;10.024;2023-06-10T01:41:47;7.90;;;6.60;;
27642;SDS011;15053;48.618;10.024;2023-06-10T01:44:21;8.05;;;6.95;;
27642;SDS011;15053;48.618;10.024;2023-06-10T01:46:49;9.77;;;6.75;;
27642;SDS011;15053;48.618;10.024;2023-06-10T01:49:16;7.10;;;6.43;;
27642;SDS011;15053;48.618;10.024;2023-06-10T01:51:42;13.82;;;10.25;;
27642;SDS011;15053;48.618;10.024;2023-06-10T01:54:09;8.90;;;7.18;;
27642;SDS011;15053;48.618;10.024;2023-06-10T01:56:36;8.07;;;7.10;;
27642;SDS011;15053;48.618;10.024;2023-06-10T01:59:02;9.60;;;6.90;;
27642;SDS011;15053;48.618;10.024;2023-06-10T02:01:29;13.52;;;6.90;;
27642;SDS011;15053;48.618;10.024;2023-06-10T02:03:55;6.72;;;6.03;;
27642;SDS011;15053;48.618;10.024;2023-06-10T02:06:22;8.43;;;6.63;;
27642;SDS011;15053;48.618;10.024;2023-06-10T02:08:49;7.85;;;6.50;;
27642;SDS011;15053;48.618;10.024;2023-06-10T02:11:15;7.93;;;6.47;;
27642;SDS011;15053;48.618;10.024;2023-06-10T02:13:42;7.38;;;6.15;;
27642;SDS011;15053;48.618;10.024;2023-06-10T02:16:09;8.45;;;7.10;;
27642;SDS011;15053;48.618;10.024;2023-06-10T02:18:39;10.63;;;7.22;;
27642;SDS011;15053;48.618;10.024;2023-06-10T02:21:09;7.93;;;6.47;;
27642;SDS011;15053;48.618;10.024;2023-06-10T02:23:36;9.35;;;6.82;;
27642;SDS011;15053;48.618;10.024;2023-06-10T02:26:03;7.70;;;6.40;;
27642;SDS011;15053;48.618;10.024;2023-06-10T02:28:29;7.88;;;6.40;;
27642;SDS011;15053;48.618;10.024;2023-06-10T02:30:57;9.05;;;6.97;;
27642;SDS011;15053;48.618;10.024;2023-06-10T02:33:25;9.65;;;7.20;;
27642;SDS011;15053;48.618;10.024;2023-06-10T02:35:53;9.00;;;6.97;;
27642;SDS011;15053;48.618;10.024;2023-06-10T02:38:22;8.55;;;6.47;;
27642;SDS011;15053;48.618;10.024;2023-06-10T02:40:49;9.60;;;7.50;;
27642;SDS011;15053;48.618;10.024;2023-06-10T02:43:15;7.80;;;6.93;;
27642;SDS011;15053;48.618;10.024;2023-06-10T02:45:43;8.82;;;7.00;;
27642;SDS011;15053;48.618;10.024;2023-06-10T02:48:10;8.20;;;6.72;;
27642;SDS011;15053;48.618;10.024;2023-06-10T02:50:37;7.90;;;6.82;;
27642;SDS011;15053;48.618;10.024;2023-06-10T02:53:27;8.00;;;7.20;;
27642;SDS011;15053;48.618;10.024;2023-06-10T02:56:02;8.65;;;6.57;;
27642;SDS011;15053;48.618;10.024;2023-06-10T02:58:28;7.90;;;7.03;;
27642;SDS011;15053;48.618;10.024;2023-06-10T03:00:56;9.50;;;7.57;;
27642;SDS011;15053;48.618;10.024;2023-06-10T03:03:23;8.43;;;6.50;;
27642;SDS011;15053;48.618;10.024;2023-06-10T03:06:00;8.93;;;7.10;;
27642;SDS011;15053;48.618;10.024;2023-06-10T03:08:27;9.45;;;7.65;;
27642;SDS011;15053;48.618;10.024;2023-06-10T03:10:55;10.25;;;7.50;;
27642;SDS011;15053;48.618;10.024;2023-06-10T03:13:23;9.48;;;7.13;;
27642;SDS011;15053;48.618;10.024;2023-06-10T03:15:50;8.30;;;7.00;;
27642;SDS011;15053;48.618;10.024;2023-06-10T03:18:19;10.07;;;7.38;;
27642;SDS011;15053;48.618;10.024;2023-06-10T03:20:47;8.57;;;7.53;;
27642;SDS011;15053;48.618;10.024;2023-06-10T03:23:14;8.82;;;7.75;;
27642;SDS011;15053;48.618;10.024;2023-06-10T03:25:42;9.43;;;7.32;;
27642;SDS011;15053;48.618;10.024;2023-06-10T03:28:12;10.30;;;7.60;;
27642;SDS011;15053;48.618;10.024;2023-06-10T03:30:40;10.07;;;6.80;;
27642;SDS011;15053;48.618;10.024;2023-06-10T03:33:06;9.13;;;7.13;;
27642;SDS011;15053;48.618;10.024;2023-06-10T03:35:33;8.63;;;6.68;;
27642;SDS011;15053;48.618;10.024;2023-06-10T03:38:02;8.65;;;7.35;;
27642;SDS011;15053;48.618;10.024;2023-06-10T03:40:29;7.53;;;6.68;;
27642;SDS011;15053;48.618;10.024;2023-06-10T03:42:58;9.70;;;6.82;;
27642;SDS011;15053;48.618;10.024;2023-06-10T03:45:25;7.57;;;6.78;;
27642;SDS011;15053;48.618;10.024;2023-06-10T03:47:55;10.67;;;7.40;;
27642;SDS011;15053;48.618;10.024;2023-06-10T03:50:27;8.45;;;7.32;;
27642;SDS011;15053;48.618;10.024;2023-06-10T03:52:54;10.35;;;7.25;;
27642;SDS011;15053;48.618;10.024;2023-06-10T03:55:23;9.95;;;6.93;;
27642;SDS011;15053;48.618;10.024;2023-06-10T03:57:50;9.32;;;6.80;;
27642;SDS011;15053;48.618;10.024;2023-06-10T04:00:17;9.85;;;7.25;;
27642;SDS011;15053;48.618;10.024;2023-06-10T04:02:47;9.13;;;7.43;;
27642;SDS011;15053;48.618;10.024;2023-06-10T04:05:36;9.02;;;7.70;;
27642;SDS011;15053;48.618;10.024;2023-06-10T04:08:02;9.15;;;6.95;;
27642;SDS011;15053;48.618;10.024;2023-06-10T04:10:29;8.50;;;6.72;;
27642;SDS011;15053;48.618;10.024;2023-06-10T04:12:56;8.57;;;6.75;;
27642;SDS011;15053;48.618;10.024;2023-06-10T04:15:25;7.60;;;6.70;;
27642;SDS011;15053;48.618;10.024;2023-06-10T04:17:52;9.25;;;7.00;;
27642;SDS011;15053;48.618;10.024;2023-06-10T04:20:23;8.80;;;6.95;;
27642;SDS011;15053;48.618;10.024;2023-06-10T04:22:50;7.75;;;6.47;;
27642;SDS011;15053;48.618;10.024;2023-06-10T04:25:18;7.95;;;6.70;;
27642;SDS011;15053;48.618;10.024;2023-06-10T04:27:47;7.65;;;6.78;;
27642;SDS011;15053;48.618;10.024;2023-06-10T04:30:14;8.77;;;6.90;;
27642;SDS011;15053;48.618;10.024;2023-06-10T04:32:42;7.75;;;6.55;;
27642;SDS011;15053;48.618;10.024;2023-06-10T04:35:14;9.10;;;6.28;;
27642;SDS011;15053;48.618;10.024;2023-06-10T04:37:43;9.38;;;6.75;;
27642;SDS011;15053;48.618;10.024;2023-06-10T04:40:10;7.63;;;6.75;;
27642;SDS011;15053;48.618;10.024;2023-06-10T04:42:37;7.70;;;6.63;;
27642;SDS011;15053;48.618;10.024;2023-06-10T04:45:04;8.05;;;6.90;;
27642;SDS011;15053;48.618;10.024;2023-06-10T04:47:31;8.38;;;7.40;;
27642;SDS011;15053;48.618;10.024;2023-06-10T04:50:01;7.78;;;6.38;;
27642;SDS011;15053;48.618;10.024;2023-06-10T04:52:28;8.98;;;6.78;;
27642;SDS011;15053;48.618;10.024;2023-06-10T04:54:56;9.52;;;7.18;;
27642;SDS011;15053;48.618;10.024;2023-06-10T04:57:24;9.45;;;6.82;;
27642;SDS011;15053;48.618;10.024;2023-06-10T04:59:52;8.30;;;7.13;;
27642;SDS011;15053;48.618;10.024;2023-06-10T05:02:19;7.15;;;6.43;;
27642;SDS011;15053;48.618;10.024;2023-06-10T05:04:46;8.93;;;6.90;;
27642;SDS011;15053;48.618;10.024;2023-06-10T05:07:12;8.88;;;7.18;;
27642;SDS011;15053;48.618;10.024;2023-06-10T05:09:39;7.75;;;6.50;;
27642;SDS011;15053;48.618;10.024;2023-06-10T05:12:05;6.97;;;6.25;;
27642;SDS011;15053;48.618;10.024;2023-06-10T05:14:33;7.50;;;5.90;;
27642;SDS011;15053;48.618;10.024;2023-06-10T05:16:59;8.80;;;7.22;;
27642;SDS011;15053;48.618;10.024;2023-06-10T05:19:26;10.75;;;7.28;;
27642;SDS011;15053;48.618;10.024;2023-06-10T05:21:53;8.70;;;6.72;;
27642;SDS011;15053;48.618;10.024;2023-06-10T05:24:20;8.60;;;6.85;;
27642;SDS011;15053;48.618;10.024;2023-06-10T05:26:46;7.22;;;6.50;;
27642;SDS011;15053;48.618;10.024;2023-06-10T05:29:14;6.57;;;5.78;;
27642;SDS011;15053;48.618;10.024;2023-06-10T05:31:41;9.10;;;6.68;;
27642;SDS011;15053;48.618;10.024;2023-06-10T05:34:08;8.05;;;6.70;;
27642;SDS011;15053;48.618;10.024;2023-06-10T05:36:35;7.35;;;6.40;;
27642;SDS011;15053;48.618;10.024;2023-06-10T05:39:01;8.30;;;6.72;;
27642;SDS011;15053;48.618;10.024;2023-06-10T05:41:28;7.68;;;6.43;;
27642;SDS011;15053;48.618;10.024;2023-06-10T05:43:54;7.93;;;6.47;;
27642;SDS011;15053;48.618;10.024;2023-06-10T05:46:21;10.23;;;7.43;;
27642;SDS011;15053;48.618;10.024;2023-06-10T05:48:47;7.80;;;6.45;;
27642;SDS011;15053;48.618;10.024;2023-06-10T05:51:14;11.48;;;6.65;;
27642;SDS011;15053;48.618;10.024;2023-06-10T05:53:41;9.02;;;7.28;;
27642;SDS011;15053;48.618;10.024;2023-06-10T05:56:07;8.10;;;7.28;;
27642;SDS011;15053;48.618;10.024;2023-06-10T05:58:34;9.57;;;7.68;;
27642;SDS011;15053;48.618;10.024;2023-06-10T06:01:00;8.07;;;6.60;;
27642;SDS011;15053;48.618;10.024;2023-06-10T06:03:27;8.45;;;7.22;;
27642;SDS011;15053;48.618;10.024;2023-06-10T06:05:55;9.48;;;7.47;;
27642;SDS011;15053;48.618;10.024;2023-06-10T06:08:21;8.27;;;7.40;;
27642;SDS011;15053;48.618;10.024;2023-06-10T06:10:48;9.48;;;7.47;;
27642;SDS011;15053;48.618;10.024;2023-06-10T06:13:16;9.27;;;8.00;;
27642;SDS011;15053;48.618;10.024;2023-06-10T06:15:42;9.23;;;7.68;;
27642;SDS011;15053;48.618;10.024;2023-06-10T06:18:09;9.85;;;7.57;;
27642;SDS011;15053;48.618;10.024;2023-06-10T06:20:36;9.05;;;7.18;;
27642;SDS011;15053;48.618;10.024;2023-06-10T06:23:02;10.45;;;8.05;;
27642;SDS011;15053;48.618;10.024;2023-06-10T06:25:29;9.05;;;8.15;;
27642;SDS011;15053;48.618;10.024;2023-06-10T06:27:55;10.48;;;8.35;;
27642;SDS011;15053;48.618;10.024;2023-06-10T06:30:22;11.98;;;8.05;;
27642;SDS011;15053;48.618;10.024;2023-06-10T06:32:48;8.55;;;7.50;;
27642;SDS011;15053;48.618;10.024;2023-06-10T06:35:15;8.68;;;7.78;;
27642;SDS011;15053;48.618;10.024;2023-06-10T06:37:42;10.32;;;7.80;;
27642;SDS011;15053;48.618;10.024;2023-06-10T06:40:24;9.98;;;8.07;;
27642;SDS011;15053;48.618;10.024;2023-06-10T06:42:50;9.73;;;7.95;;
27642;SDS011;15053;48.618;10.024;2023-06-10T06:45:35;11.30;;;7.32;;
27642;SDS011;15053;48.618;10.024;2023-06-10T06:48:02;9.05;;;6.88;;
27642;SDS011;15053;48.618;10.024;2023-06-10T06:50:29;9.32;;;8.20;;
27642;SDS011;15053;48.618;10.024;2023-06-10T06:52:56;8.23;;;7.15;;
27642;SDS011;15053;48.618;10.024;2023-06-10T06:55:22;7.93;;;7.13;;
27642;SDS011;15053;48.618;10.024;2023-06-10T06:57:49;9.65;;;7.32;;
27642;SDS011;15053;48.618;10.024;2023-06-10T07:00:15;8.57;;;7.25;;
27642;SDS011;15053;48.618;10.024;2023-06-10T07:02:42;11.93;;;7.43;;
27642;SDS011;15053;48.618;10.024;2023-06-10T07:05:09;9.02;;;7.72;;
27642;SDS011;15053;48.618;10.024;2023-06-10T07:07:35;10.15;;;7.38;;
27642;SDS011;15053;48.618;10.024;2023-06-10T07:10:02;9.65;;;7.60;;
27642;SDS011;15053;48.618;10.024;2023-06-10T07:12:29;8.68;;;7.57;;
27642;SDS011;15053;48.618;10.024;2023-06-10T07:14:57;8.52;;;6.93;;
27642;SDS011;15053;48.618;10.024;2023-06-10T07:17:23;9.05;;;7.63;;
27642;SDS011;15053;48.618;10.024;2023-06-10T07:19:50;8.68;;;7.28;;
27642;SDS011;15053;48.618;10.024;2023-06-10T07:22:17;10.27;;;8.07;;
27642;SDS011;15053;48.618;10.024;2023-06-10T07:24:44;9.40;;;7.82;;
27642;SDS011;15053;48.618;10.024;2023-06-10T07:27:10;9.35;;;8.15;;
27642;SDS011;15053;48.618;10.024;2023-06-10T07:29:37;13.65;;;7.30;;
27642;SDS011;15053;48.618;10.024;2023-06-10T07:32:03;12.02;;;9.02;;
27642;SDS011;15053;48.618;10.024;2023-06-10T07:34:30;8.63;;;7.35;;
27642;SDS011;15053;48.618;10.024;2023-06-10T07:36:56;9.75;;;8.27;;
27642;SDS011;15053;48.618;10.024;2023-06-10T07:39:23;8.88;;;7.97;;
27642;SDS011;15053;48.618;10.024;2023-06-10T07:41:49;8.50;;;7.60;;
27642;SDS011;15053;48.618;10.024;2023-06-10T07:44:18;8.57;;;6.97;;
27642;SDS011;15053;48.618;10.024;2023-06-10T07:46:44;9.02;;;6.88;;
27642;SDS011;15053;48.618;10.024;2023-06-10T07:49:11;14.30;;;7.40;;
27642;SDS011;15053;48.618;10.024;2023-06-10T07:51:37;9.65;;;7.60;;
27642;SDS011;15053;48.618;10.024;2023-06-10T07:54:04;8.15;;;6.80;;
27642;SDS011;15053;48.618;10.024;2023-06-10T07:56:31;8.18;;;7.07;;
27642;SDS011;15053;48.618;10.024;2023-06-10T07:58:58;6.97;;;6.28;;
27642;SDS011;15053;48.618;10.024;2023-06-10T08:01:24;6.70;;;6.00;;
27642;SDS011;15053;48.618;10.024;2023-06-10T08:03:51;7.90;;;6.25;;
27642;SDS011;15053;48.618;10.024;2023-06-10T08:06:17;6.32;;;5.72;;
27642;SDS011;15053;48.618;10.024;2023-06-10T08:08:44;7.93;;;6.15;;
27642;SDS011;15053;48.618;10.024;2023-06-10T08:11:12;6.85;;;5.90;;
27642;SDS011;15053;48.618;10.024;2023-06-10T08:13:39;6.22;;;5.63;;
27642;SDS011;15053;48.618;10.024;2023-06-10T08:16:06;9.63;;;6.22;;
27642;SDS011;15053;48.618;10.024;2023-06-10T08:18:33;6.93;;;6.20;;
27642;SDS011;15053;48.618;10.024;2023-06-10T08:21:00;8.10;;;5.93;;
27642;SDS011;15053;48.618;10.024;2023-06-10T08:23:26;7.80;;;6.22;;
27642;SDS011;15053;48.618;10.024;2023-06-10T08:25:53;7.55;;;5.90;;
27642;SDS011;15053;48.618;10.024;2023-06-10T08:28:19;8.25;;;6.28;;
27642;SDS011;15053;48.618;10.024;2023-06-10T08:30:46;7.72;;;6.50;;
27642;SDS011;15053;48.618;10.024;2023-06-10T08:33:12;7.25;;;6.55;;
27642;SDS011;15053;48.618;10.024;2023-06-10T08:35:39;9.57;;;6.38;;
27642;SDS011;15053;48.618;10.024;2023-06-10T08:38:05;6.88;;;6.18;;
27642;SDS011;15053;48.618;10.024;2023-06-10T08:40:32;6.65;;;5.95;;
27642;SDS011;15053;48.618;10.024;2023-06-10T08:43:06;8.15;;;6.32;;
27642;SDS011;15053;48.618;10.024;2023-06-10T08:45:34;8.38;;;6.50;;
27642;SDS011;15053;48.618;10.024;2023-06-10T08:48:03;6.88;;;6.05;;
27642;SDS011;15053;48.618;10.024;2023-06-10T08:50:36;6.90;;;6.20;;
27642;SDS011;15053;48.618;10.024;2023-06-10T08:53:04;6.93;;;6.30;;
27642;SDS011;15053;48.618;10.024;2023-06-10T08:55:53;7.68;;;6.60;;
27642;SDS011;15053;48.618;10.024;2023-06-10T08:58:19;6.88;;;6.18;;
27642;SDS011;15053;48.618;10.024;2023-06-10T09:00:46;9.35;;;6.68;;
27642;SDS011;15053;48.618;10.024;2023-06-10T09:03:13;9.27;;;6.80;;
27642;SDS011;15053;48.618;10.024;2023-06-10T09:05:40;6.82;;;6.22;;
27642;SDS011;15053;48.618;10.024;2023-06-10T09:08:08;6.95;;;6.25;;
27642;SDS011;15053;48.618;10.024;2023-06-10T09:10:35;7.22;;;6.53;;
27642;SDS011;15053;48.618;10.024;2023-06-10T09:13:02;11.13;;;7.57;;
27642;SDS011;15053;48.618;10.024;2023-06-10T09:15:29;7.15;;;6.45;;
27642;SDS011;15053;48.618;10.024;2023-06-10T09:17:55;7.45;;;6.60;;
27642;SDS011;15053;48.618;10.024;2023-06-10T09:20:22;9.05;;;6.82;;
27642;SDS011;15053;48.618;10.024;2023-06-10T09:22:49;7.18;;;6.47;;
27642;SDS011;15053;48.618;10.024;2023-06-10T09:25:16;7.53;;;6.75;;
27642;SDS011;15053;48.618;10.024;2023-06-10T09:27:45;7.30;;;6.60;;
27642;SDS011;15053;48.618;10.024;2023-06-10T09:30:33;7.20;;;6.35;;
27642;SDS011;15053;48.618;10.024;2023-06-10T09:33:02;6.93;;;6.22;;
27642;SDS011;15053;48.618;10.024;2023-06-10T09:35:35;7.78;;;6.97;;
27642;SDS011;15053;48.618;10.024;2023-06-10T09:38:02;7.10;;;6.40;;
27642;SDS011;15053;48.618;10.024;2023-06-10T09:40:29;7.10;;;6.40;;
27642;SDS011;15053;48.618;10.024;2023-06-10T09:42:59;6.38;;;5.72;;
27642;SDS011;15053;48.618;10.024;2023-06-10T09:45:29;10.90;;;5.82;;
27642;SDS011;15053;48.618;10.024;2023-06-10T09:48:00;6.82;;;6.13;;
27642;SDS011;15053;48.618;10.024;2023-06-10T09:50:27;6.78;;;5.70;;
27642;SDS011;15053;48.618;10.024;2023-06-10T09:52:54;8.02;;;5.97;;
27642;SDS011;15053;48.618;10.024;2023-06-10T09:55:20;6.50;;;5.90;;
27642;SDS011;15053;48.618;10.024;2023-06-10T09:57:49;6.82;;;5.90;;
27642;SDS011;15053;48.618;10.024;2023-06-10T10:00:16;7.25;;;6.55;;
27642;SDS011;15053;48.618;10.024;2023-06-10T10:02:47;8.77;;;5.82;;
27642;SDS011;15053;48.618;10.024;2023-06-10T10:05:15;8.32;;;5.72;;
27642;SDS011;15053;48.618;10.024;2023-06-10T10:07:43;5.63;;;4.88;;
27642;SDS011;15053;48.618;10.024;2023-06-10T10:10:11;10.05;;;6.03;;
27642;SDS011;15053;48.618;10.024;2023-06-10T10:12:39;6.55;;;5.32;;
27642;SDS011;15053;48.618;10.024;2023-06-10T10:15:10;6.18;;;5.57;;
27642;SDS011;15053;48.618;10.024;2023-06-10T10:20:06;6.03;;;5.30;;
27642;SDS011;15053;48.618;10.024;2023-06-10T10:22:39;5.70;;;5.20;;
27642;SDS011;15053;48.618;10.024;2023-06-10T10:25:28;5.03;;;4.53;;
27642;SDS011;15053;48.618;10.024;2023-06-10T10:28:19;5.60;;;5.00;;
27642;SDS011;15053;48.618;10.024;2023-06-10T10:30:49;6.38;;;4.90;;
27642;SDS011;15053;48.618;10.024;2023-06-10T10:33:19;8.60;;;4.90;;
27642;SDS011;15053;48.618;10.024;2023-06-10T10:35:49;7.22;;;5.90;;
27642;SDS011;15053;48.618;10.024;2023-06-10T10:38:16;9.85;;;5.68;;
27642;SDS011;15053;48.618;10.024;2023-06-10T10:40:43;5.95;;;5.43;;
27642;SDS011;15053;48.618;10.024;2023-06-10T10:43:11;7.72;;;6.07;;
27642;SDS011;15053;48.618;10.024;2023-06-10T10:45:38;6.35;;;5.75;;
27642;SDS011;15053;48.618;10.024;2023-06-10T10:48:05;6.45;;;5.25;;
27642;SDS011;15053;48.618;10.024;2023-06-10T10:50:36;5.75;;;5.10;;
27642;SDS011;15053;48.618;10.024;2023-06-10T10:53:03;5.53;;;4.78;;
27642;SDS011;15053;48.618;10.024;2023-06-10T10:55:31;7.05;;;5.40;;
27642;SDS011;15053;48.618;10.024;2023-06-10T10:57:58;5.35;;;4.85;;
27642;SDS011;15053;48.618;10.024;2023-06-10T11:00:33;5.60;;;4.70;;
27642;SDS011;15053;48.618;10.024;2023-06-10T11:03:05;6.65;;;5.20;;
27642;SDS011;15053;48.618;10.024;2023-06-10T11:05:41;5.85;;;4.28;;
27642;SDS011;15053;48.618;10.024;2023-06-10T11:08:11;5.80;;;4.43;;
27642;SDS011;15053;48.618;10.024;2023-06-10T11:10:38;6.03;;;4.72;;
27642;SDS011;15053;48.618;10.024;2023-06-10T11:13:07;5.07;;;4.10;;
27642;SDS011;15053;48.618;10.024;2023-06-10T11:15:39;4.10;;;3.67;;
27642;SDS011;15053;48.618;10.024;2023-06-10T11:18:23;5.82;;;4.47;;
27642;SDS011;15053;48.618;10.024;2023-06-10T11:20:51;8.07;;;4.70;;
27642;SDS011;15053;48.618;10.024;2023-06-10T11:31:38;4.80;;;4.35;;
27642;SDS011;15053;48.618;10.024;2023-06-10T11:34:15;6.10;;;5.15;;
27642;SDS011;15053;48.618;10.024;2023-06-10T11:36:49;5.43;;;4.93;;
27642;SDS011;15053;48.618;10.024;2023-06-10T11:39:16;5.32;;;4.82;;
27642;SDS011;15053;48.618;10.024;2023-06-10T11:41:44;7.35;;;4.72;;
27642;SDS011;15053;48.618;10.024;2023-06-10T11:44:12;6.03;;;5.30;;
27642;SDS011;15053;48.618;10.024;2023-06-10T11:46:44;5.68;;;5.18;;
27642;SDS011;15053;48.618;10.024;2023-06-10T11:49:12;5.65;;;5.03;;
27642;SDS011;15053;48.618;10.024;2023-06-10T11:51:38;5.18;;;4.75;;
27642;SDS011;15053;48.618;10.024;2023-06-10T11:54:10;5.03;;;4.50;;
27642;SDS011;15053;48.618;10.024;2023-06-10T11:56:36;4.97;;;4.45;;
27642;SDS011;15053;48.618;10.024;2023-06-10T11:59:04;5.07;;;4.43;;
27642;SDS011;15053;48.618;10.024;2023-06-10T12:01:35;6.25;;;4.60;;
27642;SDS011;15053;48.618;10.024;2023-06-10T12:04:07;5.63;;;5.13;;
27642;SDS011;15053;48.618;10.024;2023-06-10T12:06:38;6.70;;;5.18;;
27642;SDS011;15053;48.618;10.024;2023-06-10T12:09:19;5.95;;;4.78;;
27642;SDS011;15053;48.618;10.024;2023-06-10T12:11:58;7.22;;;5.30;;
27642;SDS011;15053;48.618;10.024;2023-06-10T12:20:41;6.13;;;4.82;;
27642;SDS011;15053;48.618;10.024;2023-06-10T12:22:52;8.43;;;5.43;;
27642;SDS011;15053;48.618;10.024;2023-06-10T12:25:23;5.47;;;4.45;;
27642;SDS011;15053;48.618;10.024;2023-06-10T12:27:53;5.18;;;4.68;;
27642;SDS011;15053;48.618;10.024;2023-06-10T12:30:21;6.88;;;4.15;;
27642;SDS011;15053;48.618;10.024;2023-06-10T12:32:50;5.53;;;4.55;;
27642;SDS011;15053;48.618;10.024;2023-06-10T12:35:22;5.53;;;4.68;;
27642;SDS011;15053;48.618;10.024;2023-06-10T12:38:01;5.07;;;4.57;;
27642;SDS011;15053;48.618;10.024;2023-06-10T12:40:34;8.32;;;4.88;;
27642;SDS011;15053;48.618;10.024;2023-06-10T12:43:06;6.30;;;5.80;;
27642;SDS011;15053;48.618;10.024;2023-06-10T12:45:36;5.95;;;4.80;;
27642;SDS011;15053;48.618;10.024;2023-06-10T12:48:10;6.95;;;5.45;;
27642;SDS011;15053;48.618;10.024;2023-06-10T12:50:40;5.50;;;5.00;;
27642;SDS011;15053;48.618;10.024;2023-06-10T12:53:07;5.82;;;5.20;;
27642;SDS011;15053;48.618;10.024;2023-06-10T12:55:34;6.00;;;5.50;;
27642;SDS011;15053;48.618;10.024;2023-06-10T12:58:01;9.30;;;5.53;;
27642;SDS011;15053;48.618;10.024;2023-06-10T13:00:29;5.93;;;5.32;;
27642;SDS011;15053;48.618;10.024;2023-06-10T13:02:57;5.28;;;4.80;;
27642;SDS011;15053;48.618;10.024;2023-06-10T13:05:27;5.60;;;5.10;;
27642;SDS011;15053;48.618;10.024;2023-06-10T13:07:54;6.57;;;5.10;;
27642;SDS011;15053;48.618;10.024;2023-06-10T13:10:21;5.45;;;4.90;;
27642;SDS011;15053;48.618;10.024;2023-06-10T13:12:51;7.82;;;5.50;;
27642;SDS011;15053;48.618;10.024;2023-06-10T13:15:19;6.15;;;5.32;;
27642;SDS011;15053;48.618;10.024;2023-06-10T13:17:45;6.13;;;5.53;;
27642;SDS011;15053;48.618;10.024;2023-06-10T13:20:17;6.65;;;5.45;;
27642;SDS011;15053;48.618;10.024;2023-06-10T13:22:44;5.20;;;4.70;;
27642;SDS011;15053;48.618;10.024;2023-06-10T13:25:11;5.63;;;5.13;;
27642;SDS011;15053;48.618;10.024;2023-06-10T13:27:39;7.47;;;5.40;;
27642;SDS011;15053;48.618;10.024;2023-06-10T13:30:06;6.35;;;5.50;;
27642;SDS011;15053;48.618;10.024;2023-06-10T13:32:33;6.18;;;5.68;;
27642;SDS011;15053;48.618;10.024;2023-06-10T13:35:00;6.07;;;5.53;;
27642;SDS011;15053;48.618;10.024;2023-06-10T13:37:30;5.60;;;5.10;;
27642;SDS011;15053;48.618;10.024;2023-06-10T13:39:56;5.75;;;5.25;;
27642;SDS011;15053;48.618;10.024;2023-06-10T13:42:23;6.18;;;5.57;;
27642;SDS011;15053;48.618;10.024;2023-06-10T13:44:52;6.82;;;5.65;;
27642;SDS011;15053;48.618;10.024;2023-06-10T13:47:19;8.75;;;5.47;;
27642;SDS011;15053;48.618;10.024;2023-06-10T13:49:45;6.22;;;5.63;;
27642;SDS011;15053;48.618;10.024;2023-06-10T13:52:12;5.90;;;5.40;;
27642;SDS011;15053;48.618;10.024;2023-06-10T13:54:39;7.68;;;5.90;;
27642;SDS011;15053;48.618;10.024;2023-06-10T13:57:05;6.55;;;5.90;;
27642;SDS011;15053;48.618;10.024;2023-06-10T13:59:32;5.63;;;5.13;;
27642;SDS011;15053;48.618;10.024;2023-06-10T14:01:59;6.20;;;5.22;;
27642;SDS011;15053;48.618;10.024;2023-06-10T14:04:26;6.45;;;5.43;;
27642;SDS011;15053;48.618;10.024;2023-06-10T14:06:53;5.88;;;5.28;;
27642;SDS011;15053;48.618;10.024;2023-06-10T14:09:20;5.95;;;5.35;;
27642;SDS011;15053;48.618;10.024;2023-06-10T14:11:46;6.32;;;5.72;;
27642;SDS011;15053;48.618;10.024;2023-06-10T14:14:13;6.90;;;6.20;;
27642;SDS011;15053;48.618;10.024;2023-06-10T14:16:41;6.80;;;5.85;;
27642;SDS011;15053;48.618;10.024;2023-06-10T14:19:09;6.13;;;5.53;;
27642;SDS011;15053;48.618;10.024;2023-06-10T14:21:35;7.03;;;5.50;;
27642;SDS011;15053;48.618;10.024;2023-06-10T14:24:02;7.35;;;6.55;;
27642;SDS011;15053;48.618;10.024;2023-06-10T14:26:29;10.60;;;6.10;;
27642;SDS011;15053;48.618;10.024;2023-06-10T14:28:55;7.18;;;5.80;;
27642;SDS011;15053;48.618;10.024;2023-06-10T14:31:22;9.80;;;6.47;;
27642;SDS011;15053;48.618;10.024;2023-06-10T14:33:48;8.00;;;6.32;;
27642;SDS011;15053;48.618;10.024;2023-06-10T14:36:15;10.38;;;8.60;;
27642;SDS011;15053;48.618;10.024;2023-06-10T14:38:42;12.30;;;9.68;;
27642;SDS011;15053;48.618;10.024;2023-06-10T14:41:08;13.32;;;11.30;;
27642;SDS011;15053;48.618;10.024;2023-06-10T14:43:35;17.88;;;14.57;;
27642;SDS011;15053;48.618;10.024;2023-06-10T14:46:01;11.00;;;9.50;;
27642;SDS011;15053;48.618;10.024;2023-06-10T14:48:28;11.50;;;10.30;;
27642;SDS011;15053;48.618;10.024;2023-06-10T14:50:54;13.95;;;12.10;;
27642;SDS011;15053;48.618;10.024;2023-06-10T14:53:21;8.75;;;7.20;;
27642;SDS011;15053;48.618;10.024;2023-06-10T14:55:48;6.40;;;5.80;;
27642;SDS011;15053;48.618;10.024;2023-06-10T14:58:15;16.75;;;13.68;;